Time;durP1;ratioP1;P1;durP2;ratioP2;P2;SDS_P1;SDS_P2;PMS_P1;PMS_P2;Temp;Humidity;BMP_temperature;BMP_pressure;BME280_temperature;BME280_humidity;BME280_pressure;Samples;Min_cycle;Max_cycle;Signal;HPM_P1;HPM_P2
2021/06/22 00:01:08;;;;;;;17.13;13.00;;;;;;;;;;4926029;29;20472;-96
2021/06/22 00:03:35;;;;;;;13.43;12.03;;;;;;;;;;4928601;29;20448;-96
2021/06/22 00:06:03;;;;;;;11.77;10.67;;;;;;;;;;4929248;29;20464;-94
2021/06/22 00:08:29;;;;;;;11.80;10.73;;;;;;;;;;4928865;29;20460;-96
2021/06/22 00:10:56;;;;;;;12.50;11.30;;;;;;;;;;4927061;29;20495;-95
2021/06/22 00:13:22;;;;;;;14.70;13.30;;;;;;;;;;4928458;29;20877;-95
2021/06/22 00:15:49;;;;;;;14.30;12.90;;;;;;;;;;4926369;29;20449;-96
2021/06/22 00:18:16;;;;;;;12.57;11.47;;;;;;;;;;4926616;29;20457;-95
2021/06/22 00:20:42;;;;;;;12.97;11.67;;;;;;;;;;4925940;29;20461;-96
2021/06/22 00:23:10;;;;;;;14.27;12.90;;;;;;;;;;4927723;29;20464;-96
2021/06/22 00:25:37;;;;;;;13.77;12.13;;;;;;;;;;4926386;29;20489;-96
2021/06/22 00:28:03;;;;;;;16.13;13.63;;;;;;;;;;4927170;29;20460;-95
2021/06/22 00:30:30;;;;;;;16.07;14.33;;;;;;;;;;4925394;29;20504;-95
2021/06/22 00:32:57;;;;;;;16.50;14.90;;;;;;;;;;4928172;29;20456;-96
2021/06/22 00:35:23;;;;;;;17.90;13.50;;;;;;;;;;4938286;29;20462;-95
2021/06/22 00:37:50;;;;;;;16.63;15.03;;;;;;;;;;4930817;29;20521;-96
2021/06/22 00:40:18;;;;;;;13.97;12.67;;;;;;;;;;4928839;29;20531;-96
2021/06/22 00:42:45;;;;;;;14.23;12.93;;;;;;;;;;4925213;29;20478;-96
2021/06/22 00:45:12;;;;;;;12.50;11.40;;;;;;;;;;4927647;29;20894;-96
2021/06/22 00:47:39;;;;;;;13.27;11.80;;;;;;;;;;4925041;29;20467;-96
2021/06/22 00:50:06;;;;;;;13.10;11.87;;;;;;;;;;4927237;29;20492;-96
2021/06/22 00:52:33;;;;;;;13.33;12.13;;;;;;;;;;4926266;29;20472;-96
2021/06/22 00:55:00;;;;;;;14.10;12.80;;;;;;;;;;4928504;29;20455;-96
2021/06/22 00:57:28;;;;;;;14.70;13.10;;;;;;;;;;4924471;29;20483;-96
2021/06/22 00:59:55;;;;;;;15.03;13.67;;;;;;;;;;4928018;29;20468;-96
2021/06/22 01:02:22;;;;;;;19.43;14.30;;;;;;;;;;4925812;29;20514;-95
2021/06/22 01:04:49;;;;;;;16.40;12.43;;;;;;;;;;4911253;29;20475;-96
2021/06/22 01:07:15;;;;;;;15.33;13.80;;;;;;;;;;4926193;29;20503;-96
2021/06/22 01:09:42;;;;;;;16.07;14.47;;;;;;;;;;4928203;29;20502;-95
2021/06/22 01:12:09;;;;;;;16.00;14.17;;;;;;;;;;4926350;29;20477;-96
2021/06/22 01:14:42;;;;;;;16.70;15.10;;;;;;;;;;4927334;29;20481;-96
2021/06/22 01:17:09;;;;;;;18.43;15.87;;;;;;;;;;4927763;29;20543;-96
2021/06/22 01:19:36;;;;;;;17.47;15.77;;;;;;;;;;4926164;29;20454;-96
2021/06/22 01:22:04;;;;;;;17.50;13.63;;;;;;;;;;4927453;29;20470;-96
2021/06/22 01:24:32;;;;;;;16.80;15.07;;;;;;;;;;4925002;29;20466;-96
2021/06/22 01:26:59;;;;;;;15.03;13.47;;;;;;;;;;4926771;29;20470;-96
2021/06/22 01:29:26;;;;;;;14.27;12.80;;;;;;;;;;4926191;29;21127;-96
2021/06/22 01:31:53;;;;;;;14.40;12.90;;;;;;;;;;4927017;29;20464;-96
2021/06/22 01:34:21;;;;;;;16.37;14.70;;;;;;;;;;4924303;29;20520;-96
2021/06/22 01:36:48;;;;;;;17.10;15.40;;;;;;;;;;4926415;29;21112;-96
2021/06/22 01:39:16;;;;;;;15.80;14.30;;;;;;;;;;4929712;29;20559;-96
2021/06/22 01:41:43;;;;;;;18.23;16.10;;;;;;;;;;4928155;29;20490;-96
2021/06/22 01:44:10;;;;;;;16.97;15.20;;;;;;;;;;4925293;29;20459;-96
2021/06/22 01:46:37;;;;;;;15.33;13.83;;;;;;;;;;4928339;29;20965;-96
2021/06/22 01:49:03;;;;;;;15.37;13.83;;;;;;;;;;4925870;29;20464;-96
2021/06/22 01:51:31;;;;;;;15.20;13.70;;;;;;;;;;4930377;29;20486;-96
2021/06/22 01:53:58;;;;;;;17.43;15.47;;;;;;;;;;4924618;29;20451;-96
2021/06/22 01:56:27;;;;;;;18.20;15.23;;;;;;;;;;4932756;29;20487;-96
2021/06/22 01:58:54;;;;;;;15.30;12.80;;;;;;;;;;4928839;29;20456;-96
2021/06/22 02:01:20;;;;;;;17.77;14.50;;;;;;;;;;4926756;29;20453;-96
2021/06/22 02:03:47;;;;;;;16.40;13.50;;;;;;;;;;4926715;29;20451;-96
2021/06/22 02:06:14;;;;;;;15.20;13.67;;;;;;;;;;4924369;29;20465;-96
2021/06/22 02:08:41;;;;;;;14.80;13.33;;;;;;;;;;4928227;29;20454;-96
2021/06/22 02:11:08;;;;;;;15.10;13.60;;;;;;;;;;4927438;29;20503;-96
2021/06/22 02:13:36;;;;;;;17.50;14.10;;;;;;;;;;4925870;29;20967;-96
2021/06/22 02:16:03;;;;;;;17.37;15.57;;;;;;;;;;4925014;29;20477;-96
2021/06/22 02:18:29;;;;;;;18.07;16.07;;;;;;;;;;4928377;29;20502;-96
2021/06/22 02:20:56;;;;;;;20.13;17.00;;;;;;;;;;4925356;29;20463;-96
2021/06/22 02:23:22;;;;;;;19.63;17.60;;;;;;;;;;4926918;29;20455;-96
2021/06/22 02:25:49;;;;;;;18.13;15.80;;;;;;;;;;4924387;29;20482;-96
2021/06/22 02:28:18;;;;;;;21.17;15.47;;;;;;;;;;4926048;29;20458;-96
2021/06/22 02:30:47;;;;;;;16.37;14.63;;;;;;;;;;4924728;29;20491;-96
2021/06/22 02:33:13;;;;;;;17.67;15.67;;;;;;;;;;4928425;29;20482;-96
2021/06/22 02:35:40;;;;;;;21.13;15.00;;;;;;;;;;4916756;29;20478;-96
2021/06/22 02:38:07;;;;;;;18.63;13.60;;;;;;;;;;4927550;29;20467;-96
2021/06/22 02:40:34;;;;;;;16.30;14.17;;;;;;;;;;4926830;29;21005;-96
2021/06/22 02:43:01;;;;;;;20.13;15.53;;;;;;;;;;4926394;29;20453;-96
2021/06/22 02:45:28;;;;;;;16.83;15.13;;;;;;;;;;4930236;29;20455;-96
2021/06/22 02:47:56;;;;;;;16.67;12.77;;;;;;;;;;4928151;29;20466;-96
2021/06/22 02:50:23;;;;;;;16.90;14.23;;;;;;;;;;4922902;29;20520;-96
2021/06/22 02:52:50;;;;;;;17.10;13.80;;;;;;;;;;4931455;29;20473;-96
2021/06/22 02:55:19;;;;;;;15.93;13.57;;;;;;;;;;4932986;29;20985;-96
2021/06/22 02:57:47;;;;;;;17.17;14.67;;;;;;;;;;4923642;29;20473;-96
2021/06/22 03:00:14;;;;;;;18.23;14.63;;;;;;;;;;4929093;29;20457;-96
2021/06/22 03:02:41;;;;;;;15.53;13.27;;;;;;;;;;4928664;29;20465;-96
2021/06/22 03:05:10;;;;;;;16.60;13.30;;;;;;;;;;4933425;29;20455;-96
2021/06/22 03:08:21;;;;;;;17.23;12.07;;;;;;;;;;4936915;29;20506;-96
2021/06/22 03:10:59;;;;;;;15.67;13.77;;;;;;;;;;4917200;29;20486;-96
2021/06/22 03:13:33;;;;;;;20.87;15.00;;;;;;;;;;4936432;29;20486;-96
2021/06/22 03:16:00;;;;;;;15.47;13.33;;;;;;;;;;4932510;29;20460;-96
2021/06/22 03:18:27;;;;;;;17.40;14.27;;;;;;;;;;4930022;29;20616;-96
2021/06/22 03:20:55;;;;;;;20.43;14.67;;;;;;;;;;4931590;29;20476;-96
2021/06/22 03:23:22;;;;;;;23.50;14.47;;;;;;;;;;4930915;29;20469;-96
2021/06/22 03:25:49;;;;;;;20.10;16.87;;;;;;;;;;4934629;29;20450;-96
2021/06/22 03:28:16;;;;;;;18.53;14.53;;;;;;;;;;4934587;29;20468;-96
2021/06/22 03:30:43;;;;;;;15.30;13.73;;;;;;;;;;4935565;29;20486;-96
2021/06/22 03:33:10;;;;;;;22.60;15.90;;;;;;;;;;4927955;29;20468;-96
2021/06/22 03:35:37;;;;;;;17.53;15.43;;;;;;;;;;4930826;29;20453;-96
2021/06/22 03:38:05;;;;;;;20.33;16.60;;;;;;;;;;4930915;29;20458;-96
2021/06/22 03:40:32;;;;;;;18.57;16.47;;;;;;;;;;4934259;29;20528;-96
2021/06/22 03:42:59;;;;;;;18.27;16.20;;;;;;;;;;4927165;29;20473;-96
2021/06/22 03:45:27;;;;;;;18.80;16.80;;;;;;;;;;4927951;29;20462;-95
2021/06/22 03:47:56;;;;;;;20.33;16.63;;;;;;;;;;4930344;29;20450;-96
2021/06/22 03:50:23;;;;;;;20.90;17.63;;;;;;;;;;4933740;29;20533;-96
2021/06/22 03:52:49;;;;;;;18.77;16.97;;;;;;;;;;4931051;29;20455;-96
2021/06/22 03:55:27;;;;;;;18.40;16.23;;;;;;;;;;4927629;29;20457;-96
2021/06/22 03:57:54;;;;;;;22.50;17.43;;;;;;;;;;4928539;29;20854;-96
2021/06/22 04:00:21;;;;;;;21.70;16.60;;;;;;;;;;4926823;29;20480;-96
2021/06/22 04:02:48;;;;;;;18.83;15.73;;;;;;;;;;4929176;29;20486;-96
2021/06/22 04:05:15;;;;;;;21.77;15.30;;;;;;;;;;4936056;23;20503;-96
2021/06/22 04:07:41;;;;;;;21.40;14.43;;;;;;;;;;4928284;29;20462;-96
2021/06/22 04:10:08;;;;;;;19.23;15.00;;;;;;;;;;4915523;29;20536;-96
2021/06/22 04:12:36;;;;;;;21.97;15.20;;;;;;;;;;4916209;29;20490;-95
2021/06/22 04:15:03;;;;;;;22.20;15.10;;;;;;;;;;4906510;29;20470;-95
2021/06/22 04:17:29;;;;;;;23.07;15.03;;;;;;;;;;4909342;29;20458;-96
2021/06/22 04:19:56;;;;;;;18.63;15.50;;;;;;;;;;4915233;29;20467;-96
2021/06/22 04:22:22;;;;;;;24.27;15.57;;;;;;;;;;4909074;29;20469;-95
2021/06/22 04:24:49;;;;;;;22.90;16.50;;;;;;;;;;4922897;29;20503;-96
2021/06/22 04:27:19;;;;;;;20.07;16.60;;;;;;;;;;4916518;29;20464;-96
2021/06/22 04:29:47;;;;;;;23.40;17.20;;;;;;;;;;4915683;29;20450;-96
2021/06/22 04:35:04;;;;;;;21.23;17.13;;;;;;;;;;4936816;23;20486;-96
2021/06/22 04:37:31;;;;;;;18.80;15.97;;;;;;;;;;4951688;29;20461;-96
2021/06/22 04:39:58;;;;;;;19.10;15.60;;;;;;;;;;4955048;29;20442;-96
2021/06/22 04:42:25;;;;;;;17.67;15.57;;;;;;;;;;4948179;29;20470;-96
2021/06/22 04:44:53;;;;;;;25.70;17.20;;;;;;;;;;4954312;29;20468;-96
2021/06/22 04:47:20;;;;;;;26.93;15.97;;;;;;;;;;4952331;29;20460;-95
2021/06/22 04:49:47;;;;;;;19.97;15.37;;;;;;;;;;4948140;29;20466;-96
2021/06/22 04:52:13;;;;;;;21.87;16.23;;;;;;;;;;4944657;29;20502;-96
2021/06/22 04:54:40;;;;;;;18.07;16.17;;;;;;;;;;4947119;29;20968;-95
2021/06/22 04:57:07;;;;;;;17.10;15.30;;;;;;;;;;4944542;29;20534;-95
2021/06/22 04:59:34;;;;;;;19.00;14.93;;;;;;;;;;4947039;29;20471;-95
2021/06/22 05:02:03;;;;;;;19.50;15.73;;;;;;;;;;4945394;29;20462;-96
2021/06/22 05:04:30;;;;;;;19.10;15.73;;;;;;;;;;4948164;29;20465;-96
2021/06/22 05:06:56;;;;;;;17.27;15.60;;;;;;;;;;4943702;29;20470;-95
2021/06/22 05:09:23;;;;;;;19.60;14.90;;;;;;;;;;5065827;23;20462;-96
2021/06/22 05:11:50;;;;;;;19.13;15.73;;;;;;;;;;4924288;29;20660;-96
2021/06/22 05:17:10;;;;;;;24.20;16.50;;;;;;;;;;4927350;29;20448;-96
2021/06/22 05:19:38;;;;;;;21.50;15.53;;;;;;;;;;4927593;29;20472;-95
2021/06/22 05:22:07;;;;;;;24.30;16.37;;;;;;;;;;4938884;29;20468;-96
2021/06/22 05:24:33;;;;;;;17.27;15.43;;;;;;;;;;4955672;23;20499;-94
2021/06/22 05:27:01;;;;;;;16.53;14.23;;;;;;;;;;4925105;29;20460;-96
2021/06/22 05:29:27;;;;;;;17.00;14.77;;;;;;;;;;4927203;29;20457;-96
2021/06/22 05:31:54;;;;;;;20.10;15.57;;;;;;;;;;4926138;29;20492;-95
2021/06/22 05:34:21;;;;;;;19.80;14.70;;;;;;;;;;4926538;29;20468;-95
2021/06/22 05:36:49;;;;;;;18.23;16.20;;;;;;;;;;4928550;29;20465;-95
2021/06/22 05:39:15;;;;;;;19.40;17.40;;;;;;;;;;4928781;29;20460;-96
2021/06/22 05:41:42;;;;;;;17.80;15.83;;;;;;;;;;4926869;29;20556;-95
2021/06/22 05:44:09;;;;;;;18.17;16.27;;;;;;;;;;4926235;29;20472;-96
2021/06/22 05:46:37;;;;;;;17.53;15.77;;;;;;;;;;4928040;29;20956;-96
2021/06/22 05:49:04;;;;;;;18.43;16.50;;;;;;;;;;4921114;29;20991;-96
2021/06/22 05:51:31;;;;;;;18.87;16.90;;;;;;;;;;4929643;29;20492;-96
2021/06/22 06:13:45;;;;;;;15.47;13.87;;;;;;;;;;5674854;23;20548;-96
2021/06/22 06:21:58;;;;;;;16.00;14.40;;;;;;;;;;4924649;29;20511;-96
2021/06/22 06:58:12;;;;;;;14.07;12.60;;;;;;;;;;6359430;22;20431;-96
2021/06/22 07:00:42;;;;;;;18.20;12.83;;;;;;;;;;6343672;22;20445;-96
2021/06/22 07:05:47;;;;;;;14.90;13.30;;;;;;;;;;6371899;22;20231;-96
2021/06/22 07:11:21;;;;;;;20.40;13.17;;;;;;;;;;6390476;22;20522;-96
2021/06/22 07:13:48;;;;;;;18.13;13.07;;;;;;;;;;6398512;22;20420;-96
2021/06/22 07:33:12;;;;;;;15.20;13.33;;;;;;;;;;6305841;22;21124;-96
2021/06/22 07:35:39;;;;;;;20.33;13.17;;;;;;;;;;6306995;22;20429;-96
2021/06/22 07:44:00;;;;;;;18.47;13.33;;;;;;;;;;6342003;22;20519;-96
2021/06/22 07:46:31;;;;;;;15.23;13.73;;;;;;;;;;6397285;22;20440;-96
2021/06/22 07:49:18;;;;;;;14.87;13.30;;;;;;;;;;6352390;22;20471;-96
2021/06/22 07:51:52;;;;;;;15.07;13.70;;;;;;;;;;6328796;22;20465;-96
2021/06/22 07:54:20;;;;;;;16.30;14.57;;;;;;;;;;6384382;22;20765;-96
2021/06/22 07:56:47;;;;;;;17.60;12.83;;;;;;;;;;6390199;22;20406;-96
2021/06/22 07:59:35;;;;;;;14.97;13.17;;;;;;;;;;6367537;22;20445;-96
2021/06/22 08:02:02;;;;;;;13.60;12.17;;;;;;;;;;6393950;22;20509;-96
2021/06/22 08:04:29;;;;;;;14.53;12.90;;;;;;;;;;6383990;22;20402;-96
2021/06/22 08:07:22;;;;;;;19.87;13.70;;;;;;;;;;6376023;22;20479;-96
2021/06/22 08:09:53;;;;;;;15.33;13.50;;;;;;;;;;6360644;22;20442;-96
2021/06/22 08:15:19;;;;;;;15.20;13.47;;;;;;;;;;6394016;22;20398;-96
2021/06/22 08:17:48;;;;;;;16.80;13.50;;;;;;;;;;6364670;22;20409;-96
2021/06/22 08:28:55;;;;;;;14.80;11.97;;;;;;;;;;6383801;22;20428;-96
2021/06/22 08:31:22;;;;;;;16.40;12.93;;;;;;;;;;6383793;22;20430;-96
2021/06/22 08:36:33;;;;;;;14.50;13.10;;;;;;;;;;6388984;22;20409;-96
2021/06/22 08:41:41;;;;;;;17.50;12.70;;;;;;;;;;6323677;22;21254;-96
2021/06/22 09:03:55;;;;;;;14.77;11.13;;;;;;;;;;6321859;22;20447;-96
2021/06/22 09:09:36;;;;;;;13.07;11.67;;;;;;;;;;6360795;22;20419;-96
2021/06/22 09:15:15;;;;;;;19.50;13.33;;;;;;;;;;6393233;22;20497;-96
2021/06/22 09:18:00;;;;;;;14.40;11.50;;;;;;;;;;6391403;22;20440;-96
2021/06/22 09:20:38;;;;;;;19.23;13.97;;;;;;;;;;6361584;22;20454;-96
2021/06/22 09:23:11;;;;;;;18.10;11.70;;;;;;;;;;6389877;22;20424;-96
2021/06/22 09:31:11;;;;;;;14.37;11.30;;;;;;;;;;6426450;22;20456;-95
2021/06/22 09:33:41;;;;;;;19.00;11.00;;;;;;;;;;6423816;22;20492;-96
2021/06/22 09:36:16;;;;;;;18.90;11.33;;;;;;;;;;6421308;22;20397;-96
2021/06/22 09:38:46;;;;;;;17.00;10.70;;;;;;;;;;6398921;22;20603;-95
2021/06/22 09:41:16;;;;;;;15.07;10.77;;;;;;;;;;6425558;22;20452;-96
2021/06/22 09:43:55;;;;;;;13.03;9.43;;;;;;;;;;6418285;22;20419;-96
2021/06/22 09:46:35;;;;;;;20.57;9.47;;;;;;;;;;6422549;22;20495;-96
2021/06/22 09:49:03;;;;;;;19.53;11.17;;;;;;;;;;6420295;22;20405;-96
2021/06/22 09:51:36;;;;;;;17.17;9.93;;;;;;;;;;6419942;22;20416;-95
2021/06/22 09:54:20;;;;;;;16.20;10.20;;;;;;;;;;6423250;22;20427;-96
2021/06/22 09:56:51;;;;;;;21.83;9.73;;;;;;;;;;6390411;22;20426;-96
2021/06/22 09:59:22;;;;;;;21.10;9.53;;;;;;;;;;6415158;22;20516;-96
2021/06/22 10:04:27;;;;;;;20.83;8.63;;;;;;;;;;6315757;22;20437;-96
2021/06/22 10:07:11;;;;;;;21.97;8.80;;;;;;;;;;6366822;22;21102;-96
2021/06/22 10:09:38;;;;;;;17.37;9.80;;;;;;;;;;6384054;22;20416;-96
2021/06/22 10:12:09;;;;;;;24.90;9.60;;;;;;;;;;6386638;22;20402;-96
2021/06/22 10:14:42;;;;;;;18.07;8.57;;;;;;;;;;6383280;22;20961;-96
2021/06/22 10:17:10;;;;;;;28.33;9.67;;;;;;;;;;6386768;22;20386;-96
2021/06/22 10:19:37;;;;;;;17.57;9.50;;;;;;;;;;6381433;22;20458;-96
2021/06/22 10:22:06;;;;;;;13.73;8.20;;;;;;;;;;6382551;22;20446;-95
2021/06/22 10:30:12;;;;;;;21.80;9.20;;;;;;;;;;6420724;22;20470;-96
2021/06/22 10:32:39;;;;;;;17.13;9.43;;;;;;;;;;6415666;22;20412;-94
2021/06/22 10:35:08;;;;;;;17.37;9.67;;;;;;;;;;6389088;22;20468;-95
2021/06/22 10:37:37;;;;;;;23.47;9.63;;;;;;;;;;6380719;22;20413;-96
2021/06/22 10:40:24;;;;;;;20.00;8.70;;;;;;;;;;6382834;22;20390;-96
2021/06/22 10:42:57;;;;;;;18.23;9.30;;;;;;;;;;6368341;22;20445;-96
2021/06/22 10:45:25;;;;;;;19.47;8.60;;;;;;;;;;6383994;22;20454;-96
2021/06/22 11:14:29;;;;;;;25.77;10.50;;;;;;;;;;6362867;22;20558;-96
2021/06/22 11:17:02;;;;;;;20.70;10.23;;;;;;;;;;6390730;22;20414;-96
2021/06/22 11:23:05;;;;;;;24.13;9.50;;;;;;;;;;6375942;22;20434;-95
2021/06/22 11:49:06;;;;;;;29.30;9.57;;;;;;;;;;6310271;22;20420;-96
2021/06/22 11:57:25;;;;;;;24.93;8.73;;;;;;;;;;6372471;22;20457;-96
2021/06/22 11:59:52;;;;;;;23.03;8.33;;;;;;;;;;6394919;22;20398;-96
2021/06/22 12:05:18;;;;;;;30.20;8.50;;;;;;;;;;6417300;22;20445;-96
2021/06/22 13:16:38;;;;;;;30.10;8.93;;;;;;;;;;6378579;22;20439;-96
2021/06/22 13:19:12;;;;;;;20.33;8.07;;;;;;;;;;6394750;22;20410;-96
2021/06/22 13:21:57;;;;;;;27.10;8.40;;;;;;;;;;6395944;22;20540;-96
2021/06/22 14:09:42;;;;;;;30.77;10.83;;;;;;;;;;6335553;22;20434;-96
2021/06/22 14:18:05;;;;;;;39.10;12.13;;;;;;;;;;6341534;22;20449;-96
2021/06/22 14:26:29;;;;;;;31.77;12.20;;;;;;;;;;6356524;22;20446;-96
2021/06/22 14:37:59;;;;;;;31.10;12.10;;;;;;;;;;6374115;22;20473;-96
2021/06/22 14:46:29;;;;;;;36.73;13.57;;;;;;;;;;6392706;22;20393;-96
2021/06/22 14:49:05;;;;;;;39.97;13.10;;;;;;;;;;6383047;22;20458;-96
2021/06/22 15:51:29;;;;;;;33.63;10.90;;;;;;;;;;6368550;22;21362;-96
2021/06/22 15:54:16;;;;;;;31.20;10.03;;;;;;;;;;6365680;22;20450;-95
2021/06/22 16:07:05;;;;;;;24.17;8.67;;;;;;;;;;6341313;22;20456;-96
2021/06/22 16:09:33;;;;;;;25.40;9.87;;;;;;;;;;6390224;22;20406;-96
2021/06/22 16:14:49;;;;;;;27.10;9.20;;;;;;;;;;6386552;22;20486;-96
2021/06/22 16:17:18;;;;;;;34.77;10.47;;;;;;;;;;6386169;22;20406;-96
2021/06/22 16:19:45;;;;;;;36.73;9.53;;;;;;;;;;6386254;22;20405;-96
2021/06/22 16:25:09;;;;;;;34.60;10.20;;;;;;;;;;6393771;22;20418;-96
2021/06/22 16:27:47;;;;;;;28.50;9.10;;;;;;;;;;6387065;22;20421;-96
2021/06/22 16:30:45;;;;;;;30.27;9.80;;;;;;;;;;6396382;22;20397;-96
2021/06/22 16:33:14;;;;;;;30.70;10.90;;;;;;;;;;6359826;22;20427;-96
2021/06/22 18:19:47;;;;;;;33.47;12.63;;;;;;;;;;6212084;22;4044280;-96
2021/06/22 18:22:14;;;;;;;35.50;12.87;;;;;;;;;;6369954;22;20168;-96
2021/06/22 18:24:44;;;;;;;23.33;13.80;;;;;;;;;;6368094;22;20445;-96
2021/06/22 18:27:25;;;;;;;35.33;12.90;;;;;;;;;;6370307;22;20501;-96
2021/06/22 18:29:52;;;;;;;25.90;10.90;;;;;;;;;;6375714;22;20414;-96
2021/06/22 18:32:18;;;;;;;28.23;13.63;;;;;;;;;;6367575;22;21431;-96
2021/06/22 18:34:47;;;;;;;29.43;11.37;;;;;;;;;;6359933;22;20417;-93
2021/06/22 18:37:13;;;;;;;24.17;12.93;;;;;;;;;;6359657;22;20918;-95
2021/06/22 18:39:40;;;;;;;29.00;12.43;;;;;;;;;;6361597;22;20403;-96
2021/06/22 18:42:10;;;;;;;19.30;11.20;;;;;;;;;;6360912;22;20411;-96
2021/06/22 18:44:40;;;;;;;35.70;11.80;;;;;;;;;;6369255;22;20934;-96
2021/06/22 18:52:31;;;;;;;28.00;13.03;;;;;;;;;;6389040;22;20452;-96
2021/06/22 18:54:58;;;;;;;26.83;11.20;;;;;;;;;;6391749;22;20413;-95
2021/06/22 18:57:25;;;;;;;26.90;11.90;;;;;;;;;;6396200;22;20469;-96
2021/06/22 19:00:02;;;;;;;30.57;11.90;;;;;;;;;;6393001;22;20404;-95
2021/06/22 19:02:43;;;;;;;30.77;11.60;;;;;;;;;;6389826;22;20399;-96
2021/06/22 19:05:10;;;;;;;24.23;11.57;;;;;;;;;;6390753;22;20421;-96
2021/06/22 19:07:42;;;;;;;33.73;12.53;;;;;;;;;;6386629;22;20521;-96
2021/06/22 19:10:48;;;;;;;33.10;11.80;;;;;;;;;;6402705;22;20402;-96
2021/06/22 19:19:09;;;;;;;30.80;13.10;;;;;;;;;;6395584;22;20393;-96
2021/06/22 19:24:26;;;;;;;28.17;11.10;;;;;;;;;;6322676;22;20454;-96
2021/06/22 19:26:53;;;;;;;24.57;11.63;;;;;;;;;;6369249;22;20394;-96
2021/06/22 20:01:42;;;;;;;28.87;13.00;;;;;;;;;;6377702;22;20436;-96
2021/06/22 20:04:11;;;;;;;29.83;13.63;;;;;;;;;;6396076;22;20426;-96
2021/06/22 21:02:07;;;;;;;21.63;11.80;;;;;;;;;;6277165;22;20498;-96
2021/06/22 21:04:37;;;;;;;28.97;12.40;;;;;;;;;;6400521;22;20953;-96
2021/06/22 21:07:04;;;;;;;27.47;12.87;;;;;;;;;;6429824;22;20409;-96
2021/06/22 21:12:19;;;;;;;36.10;12.33;;;;;;;;;;6343274;22;20430;-96
2021/06/22 21:26:09;;;;;;;22.90;11.90;;;;;;;;;;6418417;22;20469;-96
2021/06/22 21:28:42;;;;;;;30.23;14.50;;;;;;;;;;6421243;22;20470;-96
2021/06/22 21:31:09;;;;;;;23.10;12.10;;;;;;;;;;6422365;22;20409;-96
2021/06/22 21:33:36;;;;;;;27.43;12.70;;;;;;;;;;6417633;22;20406;-96
2021/06/22 21:36:06;;;;;;;25.40;13.40;;;;;;;;;;6421436;22;20427;-96
2021/06/22 21:38:34;;;;;;;26.97;15.07;;;;;;;;;;6414399;22;20428;-96
2021/06/22 21:44:34;;;;;;;25.80;11.97;;;;;;;;;;6342182;22;20481;-96
